Time;durP1;ratioP1;P1;durP2;ratioP2;P2;SDS_P1;SDS_P2;PMS_P1;PMS_P2;Temp;Humidity;BMP_temperature;BMP_pressure;BME280_temperature;BME280_humidity;BME280_pressure;Samples;Min_cycle;Max_cycle;Signal;HPM_P1;HPM_P2
2023/04/02 00:01:53;;;;;;;4.47;1.77;;;;;;;;;;4949644;28;20183;-73
2023/04/02 00:04:21;;;;;;;3.53;1.93;;;;;;;;;;4950925;28;20496;-73
2023/04/02 00:06:53;;;;;;;2.73;1.70;;;;;;;;;;4957319;28;20209;-73
2023/04/02 00:09:29;;;;;;;3.10;1.27;;;;;;;;;;4955944;28;20519;-74
2023/04/02 00:11:55;;;;;;;6.10;1.53;;;;;;;;;;4955720;28;20436;-73
2023/04/02 00:14:22;;;;;;;2.55;1.40;;;;;;;;;;4959199;28;21022;-74
2023/04/02 00:16:47;;;;;;;3.40;1.80;;;;;;;;;;4961359;28;20240;-74
2023/04/02 00:19:17;;;;;;;4.50;1.60;;;;;;;;;;4952805;28;21201;-74
2023/04/02 00:21:44;;;;;;;2.77;1.37;;;;;;;;;;4959403;28;20548;-74
2023/04/02 00:24:13;;;;;;;3.20;1.43;;;;;;;;;;4971666;28;20446;-73
2023/04/02 00:26:42;;;;;;;2.33;1.33;;;;;;;;;;4955826;28;20418;-74
2023/04/02 00:29:09;;;;;;;3.93;1.77;;;;;;;;;;4946732;28;20426;-73
2023/04/02 00:31:37;;;;;;;2.70;2.10;;;;;;;;;;4947960;28;20442;-73
2023/04/02 00:34:03;;;;;;;3.63;1.63;;;;;;;;;;4951281;28;20742;-73
2023/04/02 00:36:30;;;;;;;3.40;1.40;;;;;;;;;;4955581;28;21399;-73
2023/04/02 00:38:57;;;;;;;2.40;1.40;;;;;;;;;;4958204;28;20430;-74
2023/04/02 00:41:23;;;;;;;3.00;1.60;;;;;;;;;;4953863;28;20418;-73
2023/04/02 00:43:49;;;;;;;4.40;1.33;;;;;;;;;;4950196;28;20509;-74
2023/04/02 00:46:16;;;;;;;2.33;1.60;;;;;;;;;;4940663;28;21021;-74
2023/04/02 00:49:00;;;;;;;3.20;1.70;;;;;;;;;;4953282;28;20434;-73
2023/04/02 00:51:28;;;;;;;4.60;2.00;;;;;;;;;;4943762;28;20433;-73
2023/04/02 00:53:56;;;;;;;3.77;1.77;;;;;;;;;;4950008;28;20541;-73
2023/04/02 00:56:26;;;;;;;5.53;1.47;;;;;;;;;;4949827;28;20486;-73
2023/04/02 00:58:53;;;;;;;4.30;1.43;;;;;;;;;;4952649;28;20514;-73
2023/04/02 01:01:21;;;;;;;4.03;1.57;;;;;;;;;;4958345;28;20513;-73
2023/04/02 01:04:00;;;;;;;5.40;1.30;;;;;;;;;;4949395;28;20490;-74
2023/04/02 01:06:33;;;;;;;6.30;1.97;;;;;;;;;;4944415;28;20954;-73
2023/04/02 01:08:58;;;;;;;3.20;1.30;;;;;;;;;;4953112;28;20934;-73
2023/04/02 01:11:46;;;;;;;3.50;1.30;;;;;;;;;;4951471;28;20467;-74
2023/04/02 01:14:11;;;;;;;2.97;1.27;;;;;;;;;;4959680;28;20198;-74
2023/04/02 01:16:59;;;;;;;5.77;1.63;;;;;;;;;;4956465;28;20838;-73
2023/04/02 01:19:41;;;;;;;5.23;1.60;;;;;;;;;;4959036;28;20218;-74
2023/04/02 01:22:06;;;;;;;3.80;1.50;;;;;;;;;;4956193;28;20927;-74
2023/04/02 01:24:33;;;;;;;4.03;1.50;;;;;;;;;;4957959;28;20452;-74
2023/04/02 01:27:20;;;;;;;3.43;1.53;;;;;;;;;;4960281;28;20275;-74
2023/04/02 01:29:47;;;;;;;6.23;1.63;;;;;;;;;;4953145;28;20437;-74
2023/04/02 01:32:15;;;;;;;2.80;1.10;;;;;;;;;;4958627;28;20608;-73
2023/04/02 01:34:43;;;;;;;3.40;1.30;;;;;;;;;;4958143;28;20442;-74
2023/04/02 01:37:27;;;;;;;3.30;1.20;;;;;;;;;;4952297;28;20874;-74
2023/04/02 01:40:11;;;;;;;5.73;1.20;;;;;;;;;;4954068;28;20434;-74
2023/04/02 01:43:00;;;;;;;5.10;1.43;;;;;;;;;;4947780;28;20490;-74
2023/04/02 01:45:26;;;;;;;2.70;1.30;;;;;;;;;;4955565;28;20437;-74
2023/04/02 01:47:51;;;;;;;2.10;1.13;;;;;;;;;;4952883;28;20490;-74
2023/04/02 01:50:36;;;;;;;7.53;3.07;;;;;;;;;;4951753;28;20688;-74
2023/04/02 01:53:17;;;;;;;2.87;1.30;;;;;;;;;;4943605;28;20320;-73
2023/04/02 01:55:45;;;;;;;4.20;1.17;;;;;;;;;;4948070;28;20498;-73
2023/04/02 01:58:12;;;;;;;4.10;1.50;;;;;;;;;;4944939;28;20441;-73
2023/04/02 02:00:44;;;;;;;1.70;1.20;;;;;;;;;;4945309;28;20430;-74
2023/04/02 02:03:10;;;;;;;3.47;1.63;;;;;;;;;;4945163;28;20490;-73
2023/04/02 02:05:36;;;;;;;5.43;1.40;;;;;;;;;;4952411;28;20444;-73
2023/04/02 02:08:01;;;;;;;3.80;1.50;;;;;;;;;;4931503;28;20442;-74
2023/04/02 02:10:28;;;;;;;3.70;1.50;;;;;;;;;;4948332;28;21734;-73
2023/04/02 02:12:53;;;;;;;2.13;1.10;;;;;;;;;;4944795;28;20207;-73
2023/04/02 02:15:20;;;;;;;1.40;1.13;;;;;;;;;;4942976;28;20485;-74
2023/04/02 02:17:46;;;;;;;3.13;1.53;;;;;;;;;;4943127;28;20191;-74
2023/04/02 02:20:12;;;;;;;5.50;1.50;;;;;;;;;;4949094;28;20499;-73
2023/04/02 02:22:48;;;;;;;4.67;1.50;;;;;;;;;;4932013;28;20591;-73
2023/04/02 02:25:15;;;;;;;2.77;1.23;;;;;;;;;;4943610;28;20565;-73
2023/04/02 02:27:55;;;;;;;4.70;1.30;;;;;;;;;;4939932;28;20919;-74
2023/04/02 02:30:24;;;;;;;3.47;1.57;;;;;;;;;;4947355;28;20441;-74
2023/04/02 02:32:52;;;;;;;3.20;1.33;;;;;;;;;;4953257;28;20502;-73
2023/04/02 02:35:36;;;;;;;2.90;1.63;;;;;;;;;;4938212;28;20466;-74
2023/04/02 02:38:21;;;;;;;7.90;1.97;;;;;;;;;;4948985;28;20521;-74
2023/04/02 02:40:48;;;;;;;6.80;1.50;;;;;;;;;;4941487;28;20930;-74
2023/04/02 02:43:13;;;;;;;3.13;1.10;;;;;;;;;;4944841;28;20467;-74
2023/04/02 02:45:40;;;;;;;3.20;1.00;;;;;;;;;;4939058;28;20927;-74
2023/04/02 02:48:09;;;;;;;6.70;1.43;;;;;;;;;;4948826;28;20191;-74
2023/04/02 02:50:35;;;;;;;2.80;1.10;;;;;;;;;;4945043;28;20449;-74
2023/04/02 02:53:03;;;;;;;4.30;1.20;;;;;;;;;;4950440;28;20571;-74
2023/04/02 02:55:31;;;;;;;4.47;1.50;;;;;;;;;;4946052;28;20466;-74
2023/04/02 02:58:16;;;;;;;4.37;1.10;;;;;;;;;;4940892;28;20442;-74
2023/04/02 03:00:42;;;;;;;6.40;1.50;;;;;;;;;;4941469;28;20860;-74
2023/04/02 03:03:11;;;;;;;2.30;1.17;;;;;;;;;;4946321;28;20441;-73
2023/04/02 03:05:37;;;;;;;3.30;1.20;;;;;;;;;;4942873;28;20190;-73
2023/04/02 03:08:04;;;;;;;3.87;1.10;;;;;;;;;;4940293;28;20524;-73
2023/04/02 03:10:38;;;;;;;3.33;1.00;;;;;;;;;;4954276;28;20439;-74
2023/04/02 03:13:22;;;;;;;4.77;1.17;;;;;;;;;;4953122;28;20450;-74
2023/04/02 03:16:00;;;;;;;5.90;1.33;;;;;;;;;;4946209;28;20962;-74
2023/04/02 03:18:32;;;;;;;6.50;1.50;;;;;;;;;;4941175;28;20901;-73
2023/04/02 03:21:01;;;;;;;4.30;1.67;;;;;;;;;;4949707;28;20463;-74
2023/04/02 03:23:31;;;;;;;1.63;1.10;;;;;;;;;;4952322;28;20515;-74
2023/04/02 03:26:00;;;;;;;3.10;1.20;;;;;;;;;;4951703;28;20525;-74
2023/04/02 03:28:30;;;;;;;5.73;1.40;;;;;;;;;;4953663;28;20509;-73
2023/04/02 03:31:01;;;;;;;4.33;1.40;;;;;;;;;;4951484;28;20450;-74
2023/04/02 03:33:30;;;;;;;4.00;1.43;;;;;;;;;;4950274;28;20473;-73
2023/04/02 03:35:55;;;;;;;5.43;1.30;;;;;;;;;;4947675;28;20468;-74
2023/04/02 03:38:23;;;;;;;3.93;1.23;;;;;;;;;;4946117;28;20456;-74
2023/04/02 03:41:00;;;;;;;3.43;1.40;;;;;;;;;;4951346;28;20830;-73
2023/04/02 03:43:27;;;;;;;3.43;1.20;;;;;;;;;;4950465;28;20453;-74
2023/04/02 03:46:10;;;;;;;3.70;1.50;;;;;;;;;;4956467;28;20563;-74
2023/04/02 03:48:40;;;;;;;4.40;1.33;;;;;;;;;;4954314;28;20435;-73
2023/04/02 03:51:12;;;;;;;5.07;1.53;;;;;;;;;;4952550;28;20434;-73
2023/04/02 03:53:37;;;;;;;2.50;1.20;;;;;;;;;;4949283;28;20579;-73
2023/04/02 03:56:03;;;;;;;3.07;1.20;;;;;;;;;;4950399;28;20963;-73
2023/04/02 03:58:45;;;;;;;3.60;1.40;;;;;;;;;;4947903;28;20198;-73
2023/04/02 04:01:18;;;;;;;4.40;1.70;;;;;;;;;;4964746;22;20497;-70
2023/04/02 04:03:45;;;;;;;3.63;1.00;;;;;;;;;;4962974;28;20445;-70
2023/04/02 04:06:14;;;;;;;3.20;1.10;;;;;;;;;;4959376;28;20445;-71
2023/04/02 04:08:45;;;;;;;4.47;1.47;;;;;;;;;;4965765;28;20842;-70
2023/04/02 04:11:15;;;;;;;2.40;1.30;;;;;;;;;;4956117;28;20487;-70
2023/04/02 04:13:43;;;;;;;4.80;2.27;;;;;;;;;;4939404;28;20605;-72
2023/04/02 04:16:12;;;;;;;4.43;1.67;;;;;;;;;;4936822;28;20846;-72
2023/04/02 04:18:43;;;;;;;2.60;1.00;;;;;;;;;;4935178;28;20435;-70
2023/04/02 04:21:11;;;;;;;2.30;1.20;;;;;;;;;;4940467;28;20980;-70
2023/04/02 04:23:39;;;;;;;1.73;1.00;;;;;;;;;;4942205;28;20916;-72
2023/04/02 04:26:11;;;;;;;3.20;1.37;;;;;;;;;;4941382;28;20477;-71
2023/04/02 04:28:48;;;;;;;4.03;1.23;;;;;;;;;;4940817;28;20975;-70
2023/04/02 04:31:19;;;;;;;3.87;1.67;;;;;;;;;;4938678;28;20447;-70
2023/04/02 04:33:49;;;;;;;6.87;1.20;;;;;;;;;;4938968;28;20443;-70
2023/04/02 04:36:27;;;;;;;2.73;1.10;;;;;;;;;;4940210;28;20468;-71
2023/04/02 04:38:58;;;;;;;4.17;1.53;;;;;;;;;;4937785;28;20430;-71
2023/04/02 04:41:26;;;;;;;4.90;1.30;;;;;;;;;;4940488;28;20900;-70
2023/04/02 04:43:53;;;;;;;4.00;1.53;;;;;;;;;;4940058;28;20424;-70
2023/04/02 04:46:26;;;;;;;2.00;0.93;;;;;;;;;;4941018;28;20506;-71
2023/04/02 04:48:51;;;;;;;2.83;1.33;;;;;;;;;;4936769;28;20477;-70
2023/04/02 04:51:19;;;;;;;2.33;1.23;;;;;;;;;;4937741;28;20467;-71
2023/04/02 04:53:46;;;;;;;4.07;1.47;;;;;;;;;;4937046;28;20191;-71
2023/04/02 04:56:12;;;;;;;5.80;1.90;;;;;;;;;;4936490;28;20439;-71
2023/04/02 04:58:57;;;;;;;1.80;1.13;;;;;;;;;;4937161;28;20813;-71
2023/04/02 05:01:31;;;;;;;2.40;1.00;;;;;;;;;;4938588;28;20481;-71
2023/04/02 05:03:59;;;;;;;3.40;1.27;;;;;;;;;;4932799;28;20869;-70
2023/04/02 05:06:32;;;;;;;4.40;1.33;;;;;;;;;;4935989;28;20438;-70
2023/04/02 05:09:00;;;;;;;4.90;1.43;;;;;;;;;;4936733;28;20464;-70
2023/04/02 05:11:29;;;;;;;4.57;1.30;;;;;;;;;;4936050;28;20975;-70
2023/04/02 05:14:02;;;;;;;2.40;1.00;;;;;;;;;;4935101;28;20549;-71
2023/04/02 05:16:31;;;;;;;4.97;1.13;;;;;;;;;;4941613;28;20928;-72
2023/04/02 05:19:15;;;;;;;3.17;1.17;;;;;;;;;;4937463;28;20521;-72
2023/04/02 05:21:43;;;;;;;2.07;1.23;;;;;;;;;;4937370;28;20959;-70
2023/04/02 05:24:21;;;;;;;3.23;1.20;;;;;;;;;;4954063;28;20490;-70
2023/04/02 05:26:48;;;;;;;4.43;1.13;;;;;;;;;;4954762;28;20443;-70
2023/04/02 05:29:17;;;;;;;5.07;1.37;;;;;;;;;;4938815;28;20432;-72
2023/04/02 05:31:45;;;;;;;3.70;1.30;;;;;;;;;;4935955;28;20459;-71
2023/04/02 05:34:11;;;;;;;5.87;1.20;;;;;;;;;;4954274;28;20603;-71
2023/04/02 05:36:36;;;;;;;1.93;1.17;;;;;;;;;;4938696;28;20473;-70
2023/04/02 05:39:06;;;;;;;5.03;1.40;;;;;;;;;;4940297;28;20805;-71
2023/04/02 05:41:38;;;;;;;3.43;1.10;;;;;;;;;;4937845;28;20580;-71
2023/04/02 05:44:03;;;;;;;3.93;1.20;;;;;;;;;;4943338;28;20434;-71
2023/04/02 05:46:31;;;;;;;2.47;1.13;;;;;;;;;;4939780;28;20442;-70
2023/04/02 05:48:58;;;;;;;3.87;1.37;;;;;;;;;;4940878;28;20188;-70
2023/04/02 05:51:27;;;;;;;2.80;1.00;;;;;;;;;;4940164;28;20995;-71
2023/04/02 05:53:54;;;;;;;2.27;1.00;;;;;;;;;;4942772;28;20530;-70
2023/04/02 05:56:25;;;;;;;2.00;1.00;;;;;;;;;;4938352;28;20516;-72
2023/04/02 05:58:53;;;;;;;3.40;1.20;;;;;;;;;;4946304;28;20804;-71
2023/04/02 06:01:19;;;;;;;3.23;0.90;;;;;;;;;;4939993;28;20470;-69
2023/04/02 06:04:01;;;;;;;3.00;1.20;;;;;;;;;;4939181;29;20442;-70
2023/04/02 06:06:40;;;;;;;4.20;1.27;;;;;;;;;;4936400;28;20887;-71
2023/04/02 06:09:09;;;;;;;2.57;1.13;;;;;;;;;;4942899;28;20445;-69
2023/04/02 06:11:46;;;;;;;2.57;1.30;;;;;;;;;;4957643;28;20447;-71
2023/04/02 06:14:12;;;;;;;3.23;1.00;;;;;;;;;;4937548;28;20443;-71
2023/04/02 06:16:38;;;;;;;3.37;1.20;;;;;;;;;;4943006;28;20470;-72
2023/04/02 06:19:12;;;;;;;3.00;1.10;;;;;;;;;;4945025;28;20424;-71
2023/04/02 06:21:48;;;;;;;4.03;1.13;;;;;;;;;;4941509;28;20438;-70
2023/04/02 06:24:16;;;;;;;5.53;1.40;;;;;;;;;;4941837;28;20438;-72
2023/04/02 06:26:43;;;;;;;2.37;1.10;;;;;;;;;;4945146;28;20462;-71
2023/04/02 06:29:18;;;;;;;2.80;1.20;;;;;;;;;;4938796;28;20454;-71
2023/04/02 06:31:45;;;;;;;3.70;0.90;;;;;;;;;;4938876;28;20466;-70
2023/04/02 06:34:14;;;;;;;2.20;1.00;;;;;;;;;;4936342;28;20435;-69
2023/04/02 06:36:40;;;;;;;2.03;1.07;;;;;;;;;;4935049;28;20470;-69
2023/04/02 06:39:11;;;;;;;3.00;1.00;;;;;;;;;;4945662;28;20447;-68
2023/04/02 06:41:36;;;;;;;3.47;1.30;;;;;;;;;;4941182;28;20640;-70
2023/04/02 06:44:05;;;;;;;3.73;1.00;;;;;;;;;;4944567;28;20451;-71
2023/04/02 06:46:46;;;;;;;2.23;1.10;;;;;;;;;;4936562;28;25830;-70
2023/04/02 06:49:24;;;;;;;4.10;1.00;;;;;;;;;;4941179;28;20522;-71
2023/04/02 06:51:50;;;;;;;2.23;0.90;;;;;;;;;;4939452;28;20509;-72
2023/04/02 06:54:16;;;;;;;1.93;0.90;;;;;;;;;;4940426;28;20448;-72
2023/04/02 06:56:43;;;;;;;3.00;0.90;;;;;;;;;;4938770;28;20478;-70
2023/04/02 06:59:11;;;;;;;4.43;1.13;;;;;;;;;;4937397;28;20461;-72
2023/04/02 07:01:42;;;;;;;3.23;1.03;;;;;;;;;;4937415;28;20535;-72
2023/04/02 07:04:08;;;;;;;2.17;1.00;;;;;;;;;;4937245;28;20455;-73
2023/04/02 07:06:33;;;;;;;3.97;1.27;;;;;;;;;;4933796;28;20466;-73
2023/04/02 07:08:58;;;;;;;5.37;1.00;;;;;;;;;;4938329;28;20282;-72
2023/04/02 07:11:25;;;;;;;3.33;0.90;;;;;;;;;;4939962;28;20222;-72
2023/04/02 07:13:50;;;;;;;2.33;1.10;;;;;;;;;;4933879;28;20672;-70
2023/04/02 07:16:17;;;;;;;1.67;1.10;;;;;;;;;;4943607;28;20474;-70
2023/04/02 07:18:42;;;;;;;2.67;1.10;;;;;;;;;;4940237;28;20269;-69
2023/04/02 07:21:07;;;;;;;3.30;1.10;;;;;;;;;;4940304;28;20535;-68
2023/04/02 07:23:33;;;;;;;2.80;1.10;;;;;;;;;;4940458;28;20648;-70
2023/04/02 07:25:58;;;;;;;5.40;1.27;;;;;;;;;;4940920;28;20278;-69
2023/04/02 07:28:24;;;;;;;3.13;1.27;;;;;;;;;;4940294;28;20629;-69
2023/04/02 07:30:50;;;;;;;2.57;0.90;;;;;;;;;;4940087;28;20218;-69
2023/04/02 07:33:17;;;;;;;3.63;1.10;;;;;;;;;;4937683;28;20417;-69
2023/04/02 07:35:42;;;;;;;6.33;1.10;;;;;;;;;;4936204;28;20474;-70
2023/04/02 07:38:08;;;;;;;3.40;1.10;;;;;;;;;;4944853;28;20435;-73
2023/04/02 07:40:33;;;;;;;3.13;1.10;;;;;;;;;;4944666;28;20442;-72
2023/04/02 07:42:59;;;;;;;4.97;1.20;;;;;;;;;;4934406;28;20175;-72
2023/04/02 07:45:24;;;;;;;5.57;1.27;;;;;;;;;;4938162;28;20187;-71
2023/04/02 07:47:50;;;;;;;3.27;1.33;;;;;;;;;;4938792;28;20455;-72
2023/04/02 07:50:15;;;;;;;2.47;1.10;;;;;;;;;;4938775;28;20723;-72
2023/04/02 07:52:41;;;;;;;2.70;0.97;;;;;;;;;;4942453;28;20187;-72
2023/04/02 07:55:07;;;;;;;3.50;1.20;;;;;;;;;;4941632;29;20337;-72
2023/04/02 07:57:32;;;;;;;3.63;1.27;;;;;;;;;;4938026;28;20237;-72
2023/04/02 07:59:58;;;;;;;3.33;0.90;;;;;;;;;;4938509;28;20513;-73
2023/04/02 08:02:23;;;;;;;5.20;1.20;;;;;;;;;;4942185;28;20672;-73
2023/04/02 08:04:50;;;;;;;3.37;1.30;;;;;;;;;;4936310;28;20269;-73
2023/04/02 08:07:15;;;;;;;3.37;0.90;;;;;;;;;;4943010;28;20221;-73
2023/04/02 08:09:40;;;;;;;3.93;1.00;;;;;;;;;;4939877;28;20533;-73
2023/04/02 08:12:06;;;;;;;3.43;1.10;;;;;;;;;;4940997;28;20206;-73
2023/04/02 08:14:31;;;;;;;4.10;1.03;;;;;;;;;;4941346;29;20278;-73
2023/04/02 08:16:56;;;;;;;2.30;1.30;;;;;;;;;;4940417;28;20567;-73
2023/04/02 08:19:22;;;;;;;4.03;1.20;;;;;;;;;;4938747;28;20179;-72
2023/04/02 08:21:50;;;;;;;2.00;0.80;;;;;;;;;;4937283;28;20706;-72
2023/04/02 08:24:17;;;;;;;2.80;0.97;;;;;;;;;;4938182;28;20187;-71
2023/04/02 08:26:43;;;;;;;5.33;1.30;;;;;;;;;;4931799;28;20937;-71
2023/04/02 08:29:09;;;;;;;2.63;0.90;;;;;;;;;;4939315;28;20434;-72
2023/04/02 08:31:34;;;;;;;2.80;1.30;;;;;;;;;;4937289;28;20621;-71
2023/04/02 08:34:00;;;;;;;2.73;0.90;;;;;;;;;;4936161;28;20192;-71
2023/04/02 08:36:27;;;;;;;2.23;1.03;;;;;;;;;;4944647;28;20250;-71
2023/04/02 08:38:52;;;;;;;2.90;1.27;;;;;;;;;;4939835;28;20436;-71
2023/04/02 08:41:26;;;;;;;4.33;1.10;;;;;;;;;;4934948;28;20473;-71
2023/04/02 08:44:10;;;;;;;5.43;1.33;;;;;;;;;;4923112;28;20275;-71
2023/04/02 08:46:38;;;;;;;1.70;0.90;;;;;;;;;;4928889;28;20504;-72
2023/04/02 08:49:10;;;;;;;3.53;0.97;;;;;;;;;;4933918;28;21152;-72
2023/04/02 08:51:36;;;;;;;4.30;1.00;;;;;;;;;;4929869;28;20588;-73
2023/04/02 08:54:16;;;;;;;2.13;0.90;;;;;;;;;;4933747;28;20524;-73
2023/04/02 08:57:01;;;;;;;2.80;0.90;;;;;;;;;;4935582;29;20218;-73
2023/04/02 08:59:34;;;;;;;4.07;1.10;;;;;;;;;;4965511;28;20439;-73
2023/04/02 09:02:18;;;;;;;6.87;1.00;;;;;;;;;;4931451;28;20501;-71
2023/04/02 09:04:43;;;;;;;2.67;0.80;;;;;;;;;;4935342;28;20459;-71
2023/04/02 09:07:16;;;;;;;4.30;1.20;;;;;;;;;;4933162;28;20427;-72
2023/04/02 09:09:41;;;;;;;1.47;0.90;;;;;;;;;;4933190;28;20214;-72
2023/04/02 09:12:15;;;;;;;1.53;0.83;;;;;;;;;;4932740;28;20451;-72
2023/04/02 09:14:43;;;;;;;2.37;1.03;;;;;;;;;;4933703;28;20191;-72
2023/04/02 09:17:16;;;;;;;2.90;0.90;;;;;;;;;;4936161;28;20477;-72
2023/04/02 09:19:43;;;;;;;2.17;0.80;;;;;;;;;;4933241;28;20435;-72
2023/04/02 09:22:28;;;;;;;3.90;1.30;;;;;;;;;;4940537;28;20493;-72
2023/04/02 09:24:56;;;;;;;1.97;0.80;;;;;;;;;;4934613;28;20863;-72
2023/04/02 09:27:23;;;;;;;2.80;0.80;;;;;;;;;;4933671;28;20543;-72
2023/04/02 09:29:50;;;;;;;3.00;0.80;;;;;;;;;;4932196;28;20959;-72
2023/04/02 09:32:22;;;;;;;2.33;0.80;;;;;;;;;;4931084;28;21002;-73
2023/04/02 09:34:47;;;;;;;3.10;0.83;;;;;;;;;;4931618;28;20430;-72
2023/04/02 09:37:24;;;;;;;3.30;1.00;;;;;;;;;;4934046;28;20435;-72
2023/04/02 09:39:49;;;;;;;2.80;1.07;;;;;;;;;;4933300;28;20656;-72
2023/04/02 09:42:32;;;;;;;2.00;0.73;;;;;;;;;;4935265;28;20470;-72
2023/04/02 09:45:13;;;;;;;3.53;1.13;;;;;;;;;;4936418;28;20270;-73
2023/04/02 09:47:39;;;;;;;1.50;0.70;;;;;;;;;;4932267;29;20430;-73
2023/04/02 09:50:20;;;;;;;1.83;0.87;;;;;;;;;;4937300;28;20461;-74
2023/04/02 09:52:45;;;;;;;2.70;1.00;;;;;;;;;;4932417;28;20588;-73
2023/04/02 09:55:17;;;;;;;2.33;0.80;;;;;;;;;;4934680;28;21090;-73
2023/04/02 09:57:43;;;;;;;1.10;0.60;;;;;;;;;;4938295;28;20188;-70
2023/04/02 10:00:21;;;;;;;1.37;0.70;;;;;;;;;;4937153;28;20439;-70
2023/04/02 10:02:58;;;;;;;1.07;0.70;;;;;;;;;;4932093;29;20535;-70
2023/04/02 10:05:23;;;;;;;1.73;0.70;;;;;;;;;;4935058;28;20437;-71
2023/04/02 10:07:49;;;;;;;2.10;0.70;;;;;;;;;;4934844;28;20817;-69
2023/04/02 10:10:33;;;;;;;1.73;0.70;;;;;;;;;;4936831;28;20286;-69
2023/04/02 10:13:01;;;;;;;3.10;0.80;;;;;;;;;;4936047;28;20903;-70
2023/04/02 10:15:30;;;;;;;1.63;0.60;;;;;;;;;;4934863;28;20556;-69
2023/04/02 10:18:02;;;;;;;2.20;0.93;;;;;;;;;;4934254;28;20443;-70
2023/04/02 10:20:28;;;;;;;2.10;0.70;;;;;;;;;;4936699;28;20475;-69
2023/04/02 10:22:53;;;;;;;2.60;0.70;;;;;;;;;;4937320;28;20450;-69
2023/04/02 10:25:20;;;;;;;3.10;1.00;;;;;;;;;;4939853;28;20431;-69
2023/04/02 10:27:49;;;;;;;1.40;0.70;;;;;;;;;;4934868;28;20245;-70
2023/04/02 10:30:18;;;;;;;1.07;0.70;;;;;;;;;;4938360;28;20436;-70
2023/04/02 10:33:12;;;;;;;2.10;0.70;;;;;;;;;;4937636;28;20451;-69
2023/04/02 10:36:00;;;;;;;2.37;0.87;;;;;;;;;;4944177;28;20565;-71
2023/04/02 10:38:31;;;;;;;1.43;0.73;;;;;;;;;;4961023;28;20460;-70
2023/04/02 10:40:59;;;;;;;1.90;0.87;;;;;;;;;;4942168;28;20451;-70
2023/04/02 10:43:37;;;;;;;2.10;0.77;;;;;;;;;;4942503;28;20805;-69
2023/04/02 10:46:28;;;;;;;2.20;0.90;;;;;;;;;;4956159;28;20508;-69
2023/04/02 10:49:12;;;;;;;1.73;0.80;;;;;;;;;;4943650;28;20447;-69
2023/04/02 10:51:49;;;;;;;2.53;0.70;;;;;;;;;;4957373;28;20465;-68
2023/04/02 10:54:37;;;;;;;3.30;1.00;;;;;;;;;;4944355;28;20426;-69
2023/04/02 10:57:06;;;;;;;2.13;0.97;;;;;;;;;;5017194;28;20871;-69
2023/04/02 10:59:33;;;;;;;2.90;0.90;;;;;;;;;;4942185;28;20442;-69
2023/04/02 11:02:00;;;;;;;2.37;0.70;;;;;;;;;;4955077;28;20517;-69
2023/04/02 11:04:36;;;;;;;7.03;0.83;;;;;;;;;;4931888;28;20454;-69
2023/04/02 11:07:04;;;;;;;2.30;0.90;;;;;;;;;;4931500;28;20443;-68
2023/04/02 11:09:31;;;;;;;1.97;0.70;;;;;;;;;;4938793;28;20840;-68
2023/04/02 11:11:58;;;;;;;2.53;0.87;;;;;;;;;;4933787;28;20462;-68
2023/04/02 11:14:28;;;;;;;2.50;0.60;;;;;;;;;;4940330;28;20437;-68
2023/04/02 11:16:55;;;;;;;2.90;1.10;;;;;;;;;;4941537;28;21037;-68
2023/04/02 11:19:23;;;;;;;2.40;0.80;;;;;;;;;;4944019;28;20461;-68
2023/04/02 11:21:55;;;;;;;3.57;0.80;;;;;;;;;;4943313;28;20461;-68
2023/04/02 11:24:32;;;;;;;2.20;0.83;;;;;;;;;;4939277;28;21012;-67
2023/04/02 11:27:10;;;;;;;2.90;0.87;;;;;;;;;;4941140;28;20462;-67
2023/04/02 11:29:39;;;;;;;2.00;0.60;;;;;;;;;;4943807;28;20464;-68
2023/04/02 11:32:20;;;;;;;2.83;0.80;;;;;;;;;;4944577;28;20447;-68
2023/04/02 11:34:45;;;;;;;2.50;0.80;;;;;;;;;;4940392;28;20418;-68
2023/04/02 11:37:30;;;;;;;1.80;0.77;;;;;;;;;;4941399;28;20477;-67
2023/04/02 11:39:57;;;;;;;1.43;0.70;;;;;;;;;;4940383;28;20270;-68
2023/04/02 11:42:28;;;;;;;2.10;0.80;;;;;;;;;;4939393;28;20471;-67
2023/04/02 11:44:54;;;;;;;1.93;0.70;;;;;;;;;;4940307;28;20424;-68
2023/04/02 11:47:23;;;;;;;1.70;0.90;;;;;;;;;;4940078;28;20415;-68
2023/04/02 11:49:49;;;;;;;2.40;0.63;;;;;;;;;;4940836;28;20414;-70
2023/04/02 11:52:21;;;;;;;1.60;0.83;;;;;;;;;;5040798;23;20555;-74
2023/04/02 11:54:54;;;;;;;2.00;0.73;;;;;;;;;;5045684;28;20191;-74
2023/04/02 11:57:29;;;;;;;2.00;0.70;;;;;;;;;;5047001;28;20996;-74
2023/04/02 11:59:54;;;;;;;1.53;0.67;;;;;;;;;;5047022;28;20425;-74
2023/04/02 12:02:20;;;;;;;2.60;0.80;;;;;;;;;;5048510;28;20865;-74
2023/04/02 12:04:53;;;;;;;2.13;0.90;;;;;;;;;;5049192;28;20230;-74
2023/04/02 12:07:33;;;;;;;3.00;0.73;;;;;;;;;;5039113;28;20191;-74
2023/04/02 12:09:59;;;;;;;2.00;0.80;;;;;;;;;;5047579;28;20919;-74
2023/04/02 12:12:36;;;;;;;1.87;0.83;;;;;;;;;;5047954;28;20779;-74
2023/04/02 12:15:03;;;;;;;2.23;0.80;;;;;;;;;;5045651;28;20503;-74
2023/04/02 12:17:33;;;;;;;2.03;0.80;;;;;;;;;;5032323;28;20434;-74
2023/04/02 12:20:00;;;;;;;1.70;0.77;;;;;;;;;;5035489;28;20517;-75
2023/04/02 12:22:30;;;;;;;1.10;0.77;;;;;;;;;;5046655;28;20423;-74
2023/04/02 12:25:19;;;;;;;2.77;0.80;;;;;;;;;;5048890;28;20426;-74
2023/04/02 12:27:45;;;;;;;1.67;0.80;;;;;;;;;;5029751;28;20414;-74
2023/04/02 12:30:18;;;;;;;1.87;0.70;;;;;;;;;;5037935;28;20422;-74
2023/04/02 12:32:43;;;;;;;1.30;0.70;;;;;;;;;;5046974;28;20448;-74
2023/04/02 12:35:35;;;;;;;2.40;1.27;;;;;;;;;;5046004;28;20500;-74
2023/04/02 12:38:01;;;;;;;1.10;0.70;;;;;;;;;;5040763;28;20209;-74
2023/04/02 12:40:26;;;;;;;1.20;0.70;;;;;;;;;;5047212;28;20521;-74
2023/04/02 12:42:51;;;;;;;1.17;0.80;;;;;;;;;;5053447;28;20226;-74
2023/04/02 12:45:24;;;;;;;2.47;0.90;;;;;;;;;;5048386;28;20195;-74
2023/04/02 12:47:52;;;;;;;2.50;1.00;;;;;;;;;;5035729;28;20187;-74
2023/04/02 12:50:17;;;;;;;1.67;0.70;;;;;;;;;;5044026;28;20460;-74
2023/04/02 12:52:47;;;;;;;1.93;0.63;;;;;;;;;;5023124;28;20951;-75
2023/04/02 12:55:15;;;;;;;2.40;1.00;;;;;;;;;;5031604;28;20213;-75
2023/04/02 12:57:41;;;;;;;1.60;0.87;;;;;;;;;;5027965;28;20442;-74
2023/04/02 13:00:18;;;;;;;2.07;0.90;;;;;;;;;;5025731;28;20437;-74
2023/04/02 13:02:44;;;;;;;1.47;0.80;;;;;;;;;;5040098;28;20187;-74
2023/04/02 13:05:10;;;;;;;1.63;0.70;;;;;;;;;;5040609;28;20488;-74
2023/04/02 13:07:35;;;;;;;0.80;0.60;;;;;;;;;;5035873;28;20431;-74
2023/04/02 13:10:06;;;;;;;2.27;0.70;;;;;;;;;;5037695;28;20171;-78
2023/04/02 13:12:34;;;;;;;2.00;0.70;;;;;;;;;;5026794;28;20172;-76
2023/04/02 13:15:02;;;;;;;2.40;0.90;;;;;;;;;;5041277;28;20491;-76
2023/04/02 13:17:39;;;;;;;1.10;0.70;;;;;;;;;;5030451;28;20935;-76
2023/04/02 13:20:23;;;;;;;1.67;0.70;;;;;;;;;;5041109;28;20469;-76
2023/04/02 13:22:48;;;;;;;2.17;0.80;;;;;;;;;;5025551;28;21017;-76
2023/04/02 13:25:14;;;;;;;3.77;0.77;;;;;;;;;;5029070;28;20430;-76
2023/04/02 13:27:39;;;;;;;3.90;1.10;;;;;;;;;;5028509;28;20299;-76
2023/04/02 13:30:09;;;;;;;2.10;0.83;;;;;;;;;;5025933;28;20191;-76
2023/04/02 13:32:35;;;;;;;1.93;0.90;;;;;;;;;;5035179;28;20191;-74
2023/04/02 13:35:02;;;;;;;1.50;0.63;;;;;;;;;;5038093;28;20441;-79
2023/04/02 13:37:28;;;;;;;2.43;0.80;;;;;;;;;;4998502;22;20312;-65
2023/04/02 13:39:53;;;;;;;1.70;0.73;;;;;;;;;;5021847;28;20572;-65
2023/04/02 13:42:19;;;;;;;1.30;0.60;;;;;;;;;;5032059;28;20740;-66
2023/04/02 13:44:46;;;;;;;1.83;0.80;;;;;;;;;;5045361;28;20188;-66
2023/04/02 13:47:15;;;;;;;1.73;0.70;;;;;;;;;;5038743;28;20271;-66
2023/04/02 13:49:40;;;;;;;1.63;0.63;;;;;;;;;;5040359;28;20450;-66
2023/04/02 13:52:09;;;;;;;1.30;0.70;;;;;;;;;;5041084;28;20526;-64
2023/04/02 13:54:40;;;;;;;1.67;0.90;;;;;;;;;;5042907;28;20809;-64
2023/04/02 13:57:06;;;;;;;1.30;0.80;;;;;;;;;;5043655;28;20886;-64
2023/04/02 13:59:31;;;;;;;1.63;0.73;;;;;;;;;;5040219;28;20445;-64
2023/04/02 14:02:00;;;;;;;1.43;0.70;;;;;;;;;;5041715;28;20185;-64
2023/04/02 14:04:28;;;;;;;2.50;0.80;;;;;;;;;;5041564;28;20185;-64
2023/04/02 14:07:12;;;;;;;2.20;1.00;;;;;;;;;;5042393;28;20458;-64
2023/04/02 14:09:57;;;;;;;2.43;0.70;;;;;;;;;;5040058;28;20470;-65
2023/04/02 14:12:32;;;;;;;1.53;0.70;;;;;;;;;;5014037;28;20513;-64
2023/04/02 14:14:58;;;;;;;1.90;0.90;;;;;;;;;;5040931;28;20813;-65
2023/04/02 14:17:24;;;;;;;1.27;0.73;;;;;;;;;;5041040;28;20452;-65
2023/04/02 14:20:02;;;;;;;1.73;0.63;;;;;;;;;;5040169;28;20968;-65
2023/04/02 14:22:53;;;;;;;1.27;0.80;;;;;;;;;;5041116;28;20493;-66
2023/04/02 14:25:33;;;;;;;1.20;0.80;;;;;;;;;;5030123;28;20455;-65
2023/04/02 14:28:07;;;;;;;3.40;0.70;;;;;;;;;;5042795;28;21120;-66
2023/04/02 14:30:32;;;;;;;1.50;0.90;;;;;;;;;;5043243;28;20445;-65
2023/04/02 14:33:09;;;;;;;2.13;0.80;;;;;;;;;;5041882;28;20912;-65
2023/04/02 14:35:36;;;;;;;3.33;0.77;;;;;;;;;;5042800;28;20254;-66
2023/04/02 14:38:05;;;;;;;3.40;0.80;;;;;;;;;;5041431;28;20443;-66
2023/04/02 14:40:48;;;;;;;1.03;0.70;;;;;;;;;;5039737;28;20418;-65
2023/04/02 14:43:22;;;;;;;2.13;1.00;;;;;;;;;;5040020;28;20407;-65
2023/04/02 14:46:20;;;;;;;3.03;0.80;;;;;;;;;;5040260;28;20529;-65
2023/04/02 14:48:46;;;;;;;2.83;1.20;;;;;;;;;;5019489;28;20459;-65
2023/04/02 14:51:21;;;;;;;1.83;0.97;;;;;;;;;;5037830;28;20419;-65
2023/04/02 14:54:08;;;;;;;1.63;0.77;;;;;;;;;;5041205;28;20410;-66
2023/04/02 14:56:54;;;;;;;1.40;0.93;;;;;;;;;;5040280;28;20991;-65
2023/04/02 14:59:31;;;;;;;2.30;0.80;;;;;;;;;;5040286;28;20948;-66
2023/04/02 15:02:00;;;;;;;1.43;0.80;;;;;;;;;;5041999;28;20414;-65
2023/04/02 15:04:37;;;;;;;2.50;1.00;;;;;;;;;;5040472;28;20892;-66